Time;durP1;ratioP1;P1;durP2;ratioP2;P2;SDS_P1;SDS_P2;PMS_P1;PMS_P2;Temp;Humidity;BMP_temperature;BMP_pressure;BME280_temperature;BME280_humidity;BME280_pressure;Samples;Min_cycle;Max_cycle;Signal;HPM_P1;HPM_P2
2023/03/21 00:01:52;;;;;;;51.80;24.97;;;8.60;99.90;;;;;;4972683;28;20293;-74
2023/03/21 00:04:24;;;;;;;55.10;26.33;;;8.60;99.90;;;;;;4972658;28;20205;-74
2023/03/21 00:06:51;;;;;;;54.57;26.20;;;8.60;99.90;;;;;;4972536;28;20224;-74
2023/03/21 00:09:19;;;;;;;53.63;25.00;;;8.50;99.90;;;;;;4956386;28;20695;-73
2023/03/21 00:11:47;;;;;;;46.50;22.60;;;8.60;99.90;;;;;;4956312;28;20699;-73
2023/03/21 00:14:18;;;;;;;51.43;22.80;;;8.50;99.90;;;;;;4972292;28;20193;-73
2023/03/21 00:16:50;;;;;;;50.10;22.83;;;8.60;99.90;;;;;;4986106;28;20193;-73
2023/03/21 00:19:19;;;;;;;49.67;21.13;;;8.50;99.90;;;;;;4958770;28;20208;-73
2023/03/21 00:21:50;;;;;;;51.63;22.73;;;8.50;99.90;;;;;;4973463;28;20196;-75
2023/03/21 00:24:35;;;;;;;50.63;22.23;;;8.50;99.90;;;;;;4964329;28;20205;-73
2023/03/21 00:27:02;;;;;;;48.13;22.67;;;8.60;99.90;;;;;;5007943;28;20320;-72
2023/03/21 00:29:49;;;;;;;49.23;21.90;;;8.50;99.90;;;;;;4992567;28;20273;-72
2023/03/21 00:32:17;;;;;;;51.00;22.77;;;8.50;99.90;;;;;;4973012;28;20243;-74
2023/03/21 00:34:44;;;;;;;50.87;22.77;;;8.40;99.90;;;;;;4980305;28;20201;-74
2023/03/21 00:37:31;;;;;;;46.03;21.97;;;8.50;99.90;;;;;;4974976;28;20189;-73
2023/03/21 00:39:58;;;;;;;49.50;22.40;;;8.50;99.90;;;;;;5008156;28;20200;-74
2023/03/21 00:42:25;;;;;;;46.93;21.90;;;8.50;99.90;;;;;;4974953;28;20218;-72
2023/03/21 00:44:52;;;;;;;48.80;21.27;;;8.40;99.90;;;;;;4992876;28;20201;-75
2023/03/21 00:47:19;;;;;;;50.97;21.83;;;8.50;99.90;;;;;;4975219;28;20260;-75
2023/03/21 00:49:46;;;;;;;46.03;22.13;;;8.50;99.90;;;;;;4992220;28;20193;-74
2023/03/21 00:52:13;;;;;;;46.77;21.87;;;8.40;99.90;;;;;;4975240;28;20300;-74
2023/03/21 00:54:53;;;;;;;48.37;21.73;;;8.40;99.90;;;;;;4975128;28;20199;-74
2023/03/21 00:57:20;;;;;;;48.83;21.67;;;8.40;99.90;;;;;;4974574;28;20613;-74
2023/03/21 01:00:03;;;;;;;47.20;21.13;;;8.40;99.90;;;;;;5007232;28;20208;-75
2023/03/21 01:02:29;;;;;;;46.73;21.57;;;8.40;99.90;;;;;;4974735;28;20212;-74
2023/03/21 01:04:56;;;;;;;44.47;20.63;;;8.40;99.90;;;;;;4991898;28;20197;-74
2023/03/21 01:07:23;;;;;;;48.50;21.33;;;8.40;99.90;;;;;;4990872;28;20201;-74
2023/03/21 01:09:50;;;;;;;48.40;21.30;;;8.40;99.90;;;;;;4991989;28;20216;-73
2023/03/21 01:12:17;;;;;;;50.77;21.87;;;8.40;99.90;;;;;;4977849;28;20241;-74
2023/03/21 01:14:44;;;;;;;48.53;20.80;;;8.40;99.90;;;;;;4972769;28;20197;-74
2023/03/21 01:17:10;;;;;;;46.23;21.50;;;8.30;99.90;;;;;;4972744;28;20194;-74
2023/03/21 01:19:37;;;;;;;52.30;22.20;;;8.20;99.90;;;;;;4985479;28;20197;-74
2023/03/21 01:22:18;;;;;;;50.23;21.90;;;8.20;99.90;;;;;;4974826;28;20673;-75
2023/03/21 01:24:44;;;;;;;48.53;22.27;;;8.10;99.90;;;;;;4974800;28;20220;-74
2023/03/21 01:27:22;;;;;;;46.67;21.93;;;8.10;99.90;;;;;;4990689;28;20240;-74
2023/03/21 01:29:49;;;;;;;50.53;21.83;;;8.10;99.90;;;;;;4971171;28;20198;-74
2023/03/21 01:32:16;;;;;;;48.37;21.73;;;8.10;99.90;;;;;;4972164;28;20243;-74
2023/03/21 01:34:43;;;;;;;46.73;22.10;;;8.10;99.90;;;;;;4955199;28;20710;-73
2023/03/21 01:37:10;;;;;;;45.83;22.70;;;8.10;99.90;;;;;;4987122;28;20292;-75
2023/03/21 01:39:37;;;;;;;45.63;21.53;;;8.10;99.90;;;;;;4955133;28;20229;-73
2023/03/21 01:42:03;;;;;;;41.10;21.00;;;8.00;99.90;;;;;;4954850;28;20300;-73
2023/03/21 01:44:31;;;;;;;42.90;19.53;;;8.00;99.90;;;;;;4972481;28;20239;-73
2023/03/21 01:46:58;;;;;;;44.27;20.37;;;8.00;99.90;;;;;;4972615;28;20204;-76
2023/03/21 01:49:44;;;;;;;44.67;19.27;;;8.00;99.90;;;;;;4954930;28;20572;-72
2023/03/21 01:52:18;;;;;;;41.20;18.53;;;8.00;99.90;;;;;;4955157;28;20654;-72
2023/03/21 01:55:05;;;;;;;43.53;19.00;;;8.00;99.90;;;;;;4987017;28;20285;-74
2023/03/21 01:57:41;;;;;;;43.30;18.60;;;8.00;99.90;;;;;;4986677;28;20233;-73
2023/03/21 02:00:28;;;;;;;42.80;19.93;;;8.00;99.90;;;;;;4972660;28;20206;-80
2023/03/21 02:02:58;;;;;;;44.70;19.80;;;8.00;99.90;;;;;;4955380;28;20751;-82
2023/03/21 02:05:51;;;;;;;44.53;19.43;;;8.00;99.90;;;;;;4972699;28;20221;-82
2023/03/21 02:08:19;;;;;;;41.33;17.70;;;8.00;99.90;;;;;;4954928;28;20348;-80
2023/03/21 02:10:50;;;;;;;38.33;18.73;;;8.00;99.90;;;;;;4955521;28;20198;-81
2023/03/21 02:13:17;;;;;;;41.23;18.33;;;7.90;99.90;;;;;;4972510;28;20206;-80
2023/03/21 02:16:01;;;;;;;39.57;18.23;;;7.80;99.90;;;;;;4971557;28;20186;-82
2023/03/21 02:18:35;;;;;;;36.33;17.27;;;7.80;99.90;;;;;;4976097;28;20549;-80
2023/03/21 02:21:21;;;;;;;39.97;17.47;;;7.80;99.90;;;;;;4990598;28;20203;-80
2023/03/21 02:24:16;;;;;;;38.03;17.00;;;7.90;99.90;;;;;;4958569;28;20208;-79
2023/03/21 02:27:20;;;;;;;38.37;16.90;;;7.90;99.90;;;;;;4954482;28;20212;-81
2023/03/21 02:30:05;;;;;;;40.30;18.00;;;7.90;99.90;;;;;;4916449;29;20314;-81
2023/03/21 02:32:49;;;;;;;39.53;18.73;;;7.90;99.90;;;;;;4900451;29;20227;-78
2023/03/21 02:35:25;;;;;;;40.83;19.77;;;7.80;99.90;;;;;;4915904;29;20266;-76
2023/03/21 02:38:00;;;;;;;40.27;19.67;;;7.80;99.90;;;;;;4900182;29;20216;-82
2023/03/21 02:40:51;;;;;;;43.40;19.57;;;7.80;99.90;;;;;;4899957;29;20207;-82
2023/03/21 02:43:41;;;;;;;43.47;18.90;;;7.80;99.90;;;;;;4899610;29;20199;-80
2023/03/21 02:46:14;;;;;;;42.23;19.47;;;7.80;99.90;;;;;;4899630;29;20203;-79
2023/03/21 02:49:06;;;;;;;43.93;19.50;;;7.80;99.90;;;;;;4899889;29;20200;-80
2023/03/21 02:51:36;;;;;;;45.50;20.27;;;7.70;99.90;;;;;;4915681;29;20681;-80
2023/03/21 02:54:08;;;;;;;42.93;19.17;;;7.70;99.90;;;;;;4899590;29;20681;-79
2023/03/21 02:56:57;;;;;;;42.73;19.53;;;7.80;99.90;;;;;;4915136;29;20295;-75
2023/03/21 02:59:26;;;;;;;44.17;20.03;;;7.70;99.90;;;;;;4899728;29;20218;-80
2023/03/21 03:01:55;;;;;;;48.57;20.53;;;7.80;99.90;;;;;;4915142;29;20199;-79
2023/03/21 03:04:26;;;;;;;43.00;19.73;;;7.80;99.90;;;;;;4902092;29;20211;-79
2023/03/21 03:07:11;;;;;;;43.87;19.57;;;7.80;99.90;;;;;;4938124;29;20240;-80
2023/03/21 03:10:01;;;;;;;41.30;19.47;;;7.80;99.90;;;;;;4938288;29;20224;-79
2023/03/21 03:12:44;;;;;;;44.73;19.67;;;7.90;99.90;;;;;;4954214;29;20271;-80
2023/03/21 03:15:20;;;;;;;41.83;20.50;;;7.90;99.90;;;;;;4938527;29;20216;-80
2023/03/21 03:18:00;;;;;;;45.77;21.33;;;7.90;99.90;;;;;;4938151;29;20683;-80
2023/03/21 03:20:37;;;;;;;44.73;20.33;;;7.80;99.90;;;;;;4954103;29;20202;-80
2023/03/21 03:23:16;;;;;;;46.10;20.97;;;7.80;99.90;;;;;;4938237;29;20229;-73
2023/03/21 03:25:49;;;;;;;47.17;20.97;;;7.80;99.90;;;;;;4938299;29;20202;-74
2023/03/21 03:28:21;;;;;;;48.00;21.77;;;7.80;99.90;;;;;;4953503;28;20213;-79
2023/03/21 03:30:50;;;;;;;47.80;22.47;;;7.70;99.90;;;;;;4960219;28;20234;-74
2023/03/21 03:33:38;;;;;;;47.10;21.37;;;7.60;99.90;;;;;;4956913;28;20221;-73
2023/03/21 03:36:10;;;;;;;46.50;21.53;;;7.70;99.90;;;;;;4989258;28;20612;-80
2023/03/21 03:38:51;;;;;;;40.43;19.37;;;7.60;99.90;;;;;;4973410;28;20197;-74
2023/03/21 03:41:23;;;;;;;43.73;20.20;;;7.70;99.90;;;;;;4956856;28;20197;-79
2023/03/21 03:43:58;;;;;;;39.60;18.87;;;7.70;99.90;;;;;;4973240;28;20280;-80
2023/03/21 03:46:36;;;;;;;38.63;18.10;;;7.70;99.90;;;;;;4988697;28;20209;-78
2023/03/21 03:49:10;;;;;;;41.43;18.93;;;7.70;99.90;;;;;;4949373;28;20593;-81
2023/03/21 03:51:47;;;;;;;35.10;17.20;;;7.70;99.90;;;;;;4956187;28;20712;-76
2023/03/21 03:54:21;;;;;;;37.73;17.80;;;7.80;99.90;;;;;;4954329;29;20820;-78
2023/03/21 03:56:49;;;;;;;33.70;16.67;;;7.80;99.90;;;;;;4954056;29;20194;-74
2023/03/21 03:59:23;;;;;;;38.37;17.50;;;7.80;99.90;;;;;;4938503;29;20208;-75
2023/03/21 04:01:50;;;;;;;32.60;16.60;;;7.80;99.90;;;;;;4954003;28;20194;-78
2023/03/21 04:04:17;;;;;;;36.87;18.33;;;7.80;99.90;;;;;;4954626;29;20281;-77
2023/03/21 04:06:50;;;;;;;36.47;17.80;;;7.80;99.90;;;;;;4955132;29;20327;-74
2023/03/21 04:09:17;;;;;;;37.47;18.47;;;7.80;99.90;;;;;;4955330;28;20218;-75
2023/03/21 04:11:52;;;;;;;37.43;18.90;;;7.80;99.90;;;;;;4938516;29;20197;-80
2023/03/21 04:14:20;;;;;;;41.53;18.97;;;7.80;99.90;;;;;;4937583;29;20245;-75
2023/03/21 04:16:48;;;;;;;38.50;19.23;;;7.80;99.90;;;;;;4954955;29;20205;-79
2023/03/21 04:19:15;;;;;;;37.47;18.13;;;7.90;99.90;;;;;;4954678;29;20202;-78
2023/03/21 04:21:42;;;;;;;39.77;20.23;;;8.00;99.90;;;;;;4953376;29;20281;-79
2023/03/21 04:24:10;;;;;;;37.93;19.30;;;7.80;99.90;;;;;;4937054;29;20213;-78
2023/03/21 04:26:38;;;;;;;35.73;17.93;;;7.90;99.90;;;;;;4921075;29;20220;-79
2023/03/21 04:29:05;;;;;;;38.43;19.40;;;7.90;99.90;;;;;;4954270;28;20732;-74
2023/03/21 04:31:34;;;;;;;34.93;17.80;;;7.90;99.90;;;;;;4937005;29;20608;-76
2023/03/21 04:34:08;;;;;;;33.60;17.30;;;7.70;99.90;;;;;;4953447;29;20218;-78
2023/03/21 04:36:45;;;;;;;36.37;17.57;;;7.80;99.90;;;;;;4954216;29;20205;-79
2023/03/21 04:39:13;;;;;;;35.13;17.27;;;7.80;99.90;;;;;;4930681;29;20561;-77
2023/03/21 04:41:42;;;;;;;34.70;17.10;;;7.70;99.90;;;;;;4937249;29;20194;-80
2023/03/21 04:44:10;;;;;;;32.93;16.53;;;7.70;99.90;;;;;;4952724;29;20289;-79
2023/03/21 04:46:38;;;;;;;32.37;17.07;;;7.80;99.90;;;;;;4952669;29;20205;-77
2023/03/21 04:49:08;;;;;;;34.87;17.27;;;7.70;99.90;;;;;;4952748;29;20204;-72
2023/03/21 04:51:36;;;;;;;32.03;15.93;;;7.70;99.90;;;;;;4952904;29;20206;-73
2023/03/21 04:54:04;;;;;;;32.40;15.73;;;7.70;99.90;;;;;;4936744;29;20221;-79
2023/03/21 04:56:32;;;;;;;30.30;15.47;;;7.70;99.90;;;;;;4936840;29;20660;-81
2023/03/21 04:59:04;;;;;;;31.70;16.53;;;7.80;99.90;;;;;;4936445;29;20210;-80
2023/03/21 05:01:31;;;;;;;29.47;15.00;;;7.80;99.90;;;;;;4952408;29;20209;-76
2023/03/21 05:04:00;;;;;;;32.30;15.67;;;7.90;99.90;;;;;;4953840;29;20656;-78
2023/03/21 05:06:28;;;;;;;31.90;15.50;;;7.80;99.90;;;;;;4936086;29;20195;-77
2023/03/21 05:08:58;;;;;;;28.70;14.67;;;7.70;99.90;;;;;;4953436;28;20259;-78
2023/03/21 05:11:29;;;;;;;33.00;16.07;;;7.70;99.90;;;;;;4953316;29;20198;-73
2023/03/21 05:13:57;;;;;;;31.80;16.03;;;7.80;99.90;;;;;;4953294;29;20226;-74
2023/03/21 05:16:25;;;;;;;28.50;15.10;;;7.80;99.90;;;;;;4952280;29;20194;-72
2023/03/21 05:18:54;;;;;;;29.07;15.30;;;7.90;99.90;;;;;;4935953;29;20206;-75
2023/03/21 05:21:22;;;;;;;29.80;15.43;;;7.90;99.90;;;;;;4920762;29;20637;-74
2023/03/21 05:23:53;;;;;;;30.00;15.53;;;8.00;99.90;;;;;;4952145;29;20736;-73
2023/03/21 05:26:21;;;;;;;29.80;15.30;;;8.00;99.90;;;;;;4936206;29;20202;-72
2023/03/21 05:28:48;;;;;;;30.00;15.37;;;8.00;99.90;;;;;;4951879;29;20257;-72
2023/03/21 05:31:17;;;;;;;32.87;15.77;;;8.10;99.90;;;;;;4952785;29;20225;-73
2023/03/21 05:33:44;;;;;;;30.20;15.80;;;8.10;99.90;;;;;;4935923;29;20226;-73
2023/03/21 05:36:12;;;;;;;31.80;15.60;;;8.10;99.90;;;;;;4935748;29;20193;-73
2023/03/21 05:38:44;;;;;;;33.87;17.03;;;7.90;99.90;;;;;;4951932;29;20222;-80
2023/03/21 05:41:13;;;;;;;34.13;15.40;;;8.00;99.90;;;;;;4952930;29;20197;-73
2023/03/21 05:43:39;;;;;;;33.13;16.23;;;8.00;99.90;;;;;;4951752;29;20206;-73
2023/03/21 05:46:07;;;;;;;36.80;16.97;;;7.90;99.90;;;;;;4951686;29;20217;-73
2023/03/21 05:48:34;;;;;;;32.63;17.33;;;7.90;99.90;;;;;;4952097;29;20654;-73
2023/03/21 05:51:02;;;;;;;34.90;17.30;;;7.90;99.90;;;;;;4952923;28;20205;-80
2023/03/21 05:53:29;;;;;;;32.67;17.10;;;7.90;99.90;;;;;;4939707;29;20590;-80
2023/03/21 05:55:56;;;;;;;34.70;17.27;;;8.00;99.90;;;;;;4957447;29;20198;-79
2023/03/21 05:58:23;;;;;;;35.07;16.90;;;7.90;99.90;;;;;;4955748;29;20210;-80
2023/03/21 06:00:50;;;;;;;35.37;17.77;;;7.80;99.90;;;;;;4939968;29;20633;-79
2023/03/21 06:03:17;;;;;;;32.00;17.13;;;7.80;99.90;;;;;;4955681;29;20198;-80
2023/03/21 06:05:44;;;;;;;36.87;18.13;;;7.80;99.90;;;;;;4956110;29;20209;-81
2023/03/21 06:08:11;;;;;;;35.83;17.60;;;8.00;99.90;;;;;;4955589;28;20317;-77
2023/03/21 06:10:38;;;;;;;35.93;17.00;;;7.80;99.90;;;;;;4956510;29;20199;-80
2023/03/21 06:13:05;;;;;;;36.03;17.60;;;8.00;99.90;;;;;;4939411;29;20218;-80
2023/03/21 06:15:32;;;;;;;35.43;17.57;;;8.00;99.90;;;;;;4956394;29;20218;-78
2023/03/21 06:17:59;;;;;;;32.20;15.87;;;7.90;99.90;;;;;;4939342;29;20194;-77
2023/03/21 06:20:26;;;;;;;45.07;17.70;;;7.80;99.90;;;;;;4956479;28;20197;-78
2023/03/21 06:22:53;;;;;;;31.57;15.50;;;7.90;99.90;;;;;;4957189;29;20187;-81
2023/03/21 06:25:20;;;;;;;30.77;15.00;;;7.70;99.90;;;;;;4955397;29;20206;-80
2023/03/21 06:27:47;;;;;;;26.90;14.50;;;7.80;99.90;;;;;;4955279;29;20205;-80
2023/03/21 06:30:14;;;;;;;28.13;14.57;;;7.70;99.90;;;;;;4938690;29;20236;-80
2023/03/21 06:32:41;;;;;;;28.27;14.00;;;7.90;99.90;;;;;;4954937;29;20199;-79
2023/03/21 06:35:08;;;;;;;23.70;12.37;;;7.90;99.90;;;;;;4939289;29;20194;-79
2023/03/21 06:37:35;;;;;;;24.07;12.47;;;7.80;99.90;;;;;;4954867;29;20183;-81
2023/03/21 06:40:04;;;;;;;25.37;12.67;;;7.80;99.90;;;;;;4954904;29;20206;-79
2023/03/21 06:42:31;;;;;;;22.47;12.23;;;8.00;99.90;;;;;;4938888;29;20210;-79
2023/03/21 06:44:58;;;;;;;25.90;12.33;;;8.00;99.90;;;;;;4938941;29;20205;-77
2023/03/21 06:47:25;;;;;;;23.80;12.83;;;8.10;99.90;;;;;;4938693;29;20329;-79
2023/03/21 06:49:52;;;;;;;22.63;12.67;;;8.10;99.90;;;;;;4939092;29;20725;-80
2023/03/21 06:52:19;;;;;;;22.20;12.37;;;8.20;99.90;;;;;;4954705;29;20204;-79
2023/03/21 06:54:49;;;;;;;24.33;11.73;;;8.20;99.90;;;;;;4955731;29;20218;-79
2023/03/21 06:57:20;;;;;;;22.17;11.50;;;8.40;99.90;;;;;;4938895;29;20242;-80
2023/03/21 06:59:47;;;;;;;21.23;11.57;;;8.30;99.90;;;;;;4954517;29;20215;-74
2023/03/21 07:02:14;;;;;;;20.13;10.70;;;8.30;99.90;;;;;;4954253;28;20206;-75
2023/03/21 07:04:41;;;;;;;19.60;10.80;;;8.10;99.90;;;;;;4955517;29;20647;-78
2023/03/21 07:07:11;;;;;;;19.37;10.47;;;8.00;99.90;;;;;;4954582;29;20563;-75
2023/03/21 07:09:39;;;;;;;19.60;10.43;;;8.20;99.90;;;;;;4955888;28;20735;-79
2023/03/21 07:12:06;;;;;;;19.33;10.50;;;8.20;99.90;;;;;;4955862;29;20198;-77
2023/03/21 07:14:33;;;;;;;18.47;10.43;;;8.30;99.90;;;;;;4938364;29;20692;-78
2023/03/21 07:17:00;;;;;;;19.57;10.10;;;8.40;99.90;;;;;;4954208;29;20685;-73
2023/03/21 07:19:29;;;;;;;18.57;9.80;;;8.50;99.90;;;;;;4957314;28;20205;-76
2023/03/21 07:21:56;;;;;;;18.27;9.50;;;8.50;99.90;;;;;;4985789;28;20650;-75
2023/03/21 07:24:23;;;;;;;20.17;10.77;;;8.40;99.90;;;;;;4982600;28;20571;-78
2023/03/21 07:26:50;;;;;;;22.93;11.00;;;8.30;99.90;;;;;;4974714;28;20196;-78
2023/03/21 07:29:20;;;;;;;22.00;11.07;;;8.30;99.90;;;;;;4957126;28;20694;-77
2023/03/21 07:31:47;;;;;;;19.20;10.20;;;8.30;99.90;;;;;;4973109;28;20316;-82
2023/03/21 07:34:15;;;;;;;19.03;10.60;;;8.40;99.90;;;;;;4974508;28;20235;-79
2023/03/21 07:36:44;;;;;;;18.10;10.07;;;8.40;99.90;;;;;;4957283;28;20194;-75
2023/03/21 07:39:12;;;;;;;17.10;9.97;;;8.50;99.90;;;;;;4956799;28;20205;-74
2023/03/21 07:41:39;;;;;;;20.03;9.80;;;8.60;99.90;;;;;;4989325;28;20197;-75
2023/03/21 07:44:06;;;;;;;16.07;9.53;;;8.70;99.90;;;;;;4956954;28;20210;-74
2023/03/21 07:46:33;;;;;;;18.50;10.20;;;8.70;99.90;;;;;;4972815;28;20212;-77
2023/03/21 07:49:00;;;;;;;18.57;9.80;;;8.80;99.90;;;;;;4972998;28;20602;-76
2023/03/21 07:51:30;;;;;;;19.47;9.87;;;8.70;99.90;;;;;;4989096;28;20279;-77
2023/03/21 07:53:57;;;;;;;16.80;9.80;;;8.70;99.90;;;;;;4973215;28;20587;-78
2023/03/21 07:56:24;;;;;;;17.10;9.63;;;8.80;99.90;;;;;;4972899;28;20201;-77
2023/03/21 07:58:52;;;;;;;18.03;9.90;;;9.00;99.90;;;;;;4974304;28;20197;-77
2023/03/21 08:01:20;;;;;;;18.43;9.10;;;9.10;99.90;;;;;;4988996;28;20201;-78
2023/03/21 08:03:48;;;;;;;15.70;8.90;;;9.20;99.90;;;;;;4974547;28;20209;-77
2023/03/21 08:06:18;;;;;;;16.20;8.97;;;9.30;99.90;;;;;;4956766;28;20518;-78
2023/03/21 08:08:45;;;;;;;15.30;8.43;;;9.20;99.90;;;;;;4973948;28;20313;-78
2023/03/21 08:11:13;;;;;;;15.43;8.20;;;9.00;99.90;;;;;;4956457;28;20237;-77
2023/03/21 08:13:40;;;;;;;14.60;8.00;;;9.20;99.90;;;;;;4988082;28;20222;-75
2023/03/21 08:16:07;;;;;;;12.00;7.27;;;9.20;99.90;;;;;;4956573;28;20588;-75
2023/03/21 08:18:34;;;;;;;12.90;7.30;;;9.20;99.90;;;;;;4972644;28;20270;-75
2023/03/21 08:21:01;;;;;;;13.53;7.70;;;9.30;99.90;;;;;;4956217;28;20197;-76
2023/03/21 08:23:29;;;;;;;12.97;7.07;;;9.20;99.90;;;;;;4988058;28;20204;-78
2023/03/21 08:25:57;;;;;;;10.07;6.33;;;9.30;99.90;;;;;;4973565;28;20182;-75
2023/03/21 08:28:24;;;;;;;12.00;6.47;;;9.20;99.90;;;;;;4956294;28;20201;-78
2023/03/21 08:30:50;;;;;;;11.93;6.90;;;9.20;99.90;;;;;;4972371;28;20237;-78
2023/03/21 08:33:18;;;;;;;9.53;6.13;;;9.40;99.90;;;;;;4972382;28;20668;-78
2023/03/21 08:35:45;;;;;;;9.00;5.90;;;9.40;99.90;;;;;;4972280;28;20227;-77
2023/03/21 08:38:14;;;;;;;9.10;5.40;;;9.50;99.90;;;;;;4972033;28;20198;-75
2023/03/21 08:40:41;;;;;;;8.97;5.90;;;9.60;99.90;;;;;;4988263;28;20554;-77
2023/03/21 08:43:08;;;;;;;11.60;6.40;;;9.50;99.90;;;;;;4973510;28;20193;-75
2023/03/21 08:45:35;;;;;;;9.57;5.67;;;9.40;99.90;;;;;;4988163;28;20196;-74
2023/03/21 08:48:02;;;;;;;9.80;5.57;;;9.40;99.90;;;;;;4972585;28;20228;-75
2023/03/21 08:50:30;;;;;;;9.43;6.07;;;9.40;99.90;;;;;;4988556;28;20209;-77
2023/03/21 08:52:57;;;;;;;10.40;5.80;;;9.70;99.90;;;;;;4973886;28;20862;-75
2023/03/21 08:55:24;;;;;;;18.77;6.43;;;9.90;99.90;;;;;;4988415;28;20320;-77
2023/03/21 08:57:51;;;;;;;33.13;7.63;;;10.20;99.90;;;;;;4973231;28;20205;-77
2023/03/21 09:00:20;;;;;;;11.10;6.17;;;10.40;99.90;;;;;;4988299;28;20204;-76
2023/03/21 09:02:50;;;;;;;10.53;5.90;;;10.50;99.90;;;;;;4972310;28;20211;-77
2023/03/21 09:05:18;;;;;;;11.30;5.80;;;10.30;99.90;;;;;;4972352;28;20229;-76
2023/03/21 09:07:46;;;;;;;10.40;5.90;;;10.10;99.90;;;;;;4971954;28;20201;-77
2023/03/21 09:10:16;;;;;;;14.50;6.67;;;10.30;99.90;;;;;;4988105;28;20244;-78
2023/03/21 09:12:49;;;;;;;9.83;6.10;;;10.40;99.90;;;;;;4988268;28;20236;-78
2023/03/21 09:15:19;;;;;;;10.13;6.00;;;10.50;99.90;;;;;;4956290;28;20222;-78
2023/03/21 09:17:51;;;;;;;10.17;6.10;;;10.30;99.90;;;;;;4956090;28;20197;-78
2023/03/21 09:20:21;;;;;;;11.60;6.83;;;10.10;99.90;;;;;;4972235;28;20205;-77
2023/03/21 09:22:51;;;;;;;10.77;6.53;;;9.90;99.90;;;;;;4973408;28;20926;-78
2023/03/21 09:25:20;;;;;;;11.03;6.33;;;9.80;99.90;;;;;;4972240;28;20228;-75
2023/03/21 09:27:47;;;;;;;10.67;6.50;;;9.70;99.90;;;;;;4955254;28;20256;-80
2023/03/21 09:30:17;;;;;;;11.50;6.30;;;9.80;99.90;;;;;;4971907;28;20201;-78
2023/03/21 09:32:49;;;;;;;12.80;6.80;;;9.60;99.90;;;;;;4972059;28;20273;-80
2023/03/21 09:35:17;;;;;;;10.00;6.27;;;9.80;99.90;;;;;;4972488;28;20293;-75
2023/03/21 09:37:47;;;;;;;11.00;6.40;;;10.10;99.90;;;;;;4972340;28;20648;-80
2023/03/21 09:40:51;;;;;;;9.30;6.30;;;10.30;99.90;;;;;;4972856;28;20244;-75
2023/03/21 09:43:26;;;;;;;10.03;5.83;;;10.30;99.90;;;;;;4900139;29;20225;-77
2023/03/21 09:46:19;;;;;;;11.37;6.70;;;10.10;99.90;;;;;;4931691;29;20321;-76
2023/03/21 09:49:00;;;;;;;9.83;5.80;;;10.30;99.90;;;;;;4931693;29;20198;-75
2023/03/21 09:51:34;;;;;;;9.83;6.20;;;10.10;99.90;;;;;;4916354;29;20198;-76
2023/03/21 09:54:07;;;;;;;11.13;5.70;;;9.90;99.90;;;;;;4932061;29;20226;-77
2023/03/21 09:56:37;;;;;;;11.90;6.30;;;9.90;99.90;;;;;;4916261;29;20204;-80
2023/03/21 09:59:07;;;;;;;11.67;6.70;;;9.80;99.90;;;;;;4931792;29;20241;-77
2023/03/21 10:01:40;;;;;;;10.40;6.27;;;9.90;99.90;;;;;;4932008;29;20215;-76
2023/03/21 10:04:12;;;;;;;10.10;6.20;;;9.80;99.90;;;;;;4915771;29;20223;-75
2023/03/21 10:06:41;;;;;;;9.20;5.90;;;9.70;99.90;;;;;;4915765;29;20229;-81
2023/03/21 10:09:20;;;;;;;9.53;5.60;;;9.80;99.90;;;;;;4915408;29;20223;-79
2023/03/21 10:11:52;;;;;;;9.03;5.33;;;10.00;99.90;;;;;;4931488;29;20238;-77
2023/03/21 10:14:27;;;;;;;9.33;5.50;;;10.10;99.90;;;;;;4915887;29;20609;-72
2023/03/21 10:17:19;;;;;;;10.83;5.47;;;10.20;99.90;;;;;;4915415;29;20202;-77
2023/03/21 10:19:54;;;;;;;9.07;5.23;;;10.20;99.90;;;;;;4965588;28;20652;-77
2023/03/21 10:22:21;;;;;;;11.33;5.83;;;9.80;99.90;;;;;;4987038;28;20190;-80
2023/03/21 10:24:48;;;;;;;9.30;5.93;;;9.70;99.90;;;;;;4970663;28;20564;-73
2023/03/21 10:27:15;;;;;;;9.13;5.90;;;9.70;99.90;;;;;;4970764;28;20213;-78
2023/03/21 10:29:44;;;;;;;10.10;5.93;;;9.70;99.90;;;;;;4971807;28;20648;-77
2023/03/21 10:32:16;;;;;;;10.43;6.13;;;9.70;99.90;;;;;;4970613;28;20225;-75
2023/03/21 10:35:03;;;;;;;12.57;6.27;;;9.50;99.90;;;;;;4970871;28;20312;-80
2023/03/21 10:37:31;;;;;;;11.50;6.50;;;9.70;99.90;;;;;;4988178;28;20205;-79
2023/03/21 10:39:58;;;;;;;11.50;6.77;;;9.90;99.90;;;;;;4975538;28;20194;-79
2023/03/21 10:42:29;;;;;;;13.77;7.93;;;10.10;99.90;;;;;;4958390;28;20220;-79
2023/03/21 10:44:57;;;;;;;14.57;7.10;;;10.00;99.90;;;;;;4975248;28;20256;-79
2023/03/21 10:47:32;;;;;;;8.63;5.20;;;9.80;99.90;;;;;;4975411;28;20712;-80
2023/03/21 10:50:11;;;;;;;8.47;5.00;;;9.70;99.90;;;;;;4990151;28;20650;-73
2023/03/21 10:52:49;;;;;;;7.53;4.80;;;9.60;99.90;;;;;;4975531;28;20242;-72
2023/03/21 10:55:27;;;;;;;7.20;4.57;;;9.60;99.90;;;;;;4975362;28;20228;-73
2023/03/21 10:58:06;;;;;;;7.83;4.50;;;9.50;99.90;;;;;;4958021;28;20182;-77
2023/03/21 11:00:45;;;;;;;8.60;4.87;;;9.40;99.90;;;;;;4975239;28;20208;-75
2023/03/21 11:03:28;;;;;;;7.57;4.93;;;9.20;99.90;;;;;;4990183;28;20193;-75
2023/03/21 11:05:59;;;;;;;7.83;5.20;;;9.40;99.90;;;;;;4989533;28;20193;-74
2023/03/21 11:08:26;;;;;;;7.67;4.60;;;9.70;99.90;;;;;;4974777;28;20683;-74
2023/03/21 11:10:58;;;;;;;8.83;4.20;;;10.00;99.90;;;;;;4974150;28;20204;-79
2023/03/21 11:13:36;;;;;;;4.67;2.60;;;10.20;99.90;;;;;;4957765;28;20207;-75
2023/03/21 11:16:26;;;;;;;2.87;1.90;;;10.40;99.90;;;;;;4973544;28;20351;-74
2023/03/21 11:19:00;;;;;;;2.20;1.83;;;10.40;99.90;;;;;;4973760;28;20201;-76
2023/03/21 11:21:34;;;;;;;3.27;1.63;;;10.40;99.90;;;;;;4957228;28;20212;-77
2023/03/21 11:24:02;;;;;;;2.20;1.20;;;10.40;99.90;;;;;;4974944;28;20209;-73
2023/03/21 11:26:35;;;;;;;2.13;1.17;;;10.40;99.90;;;;;;4970382;28;20203;-76
2023/03/21 11:29:28;;;;;;;1.63;1.30;;;10.40;99.90;;;;;;4970402;28;20213;-74
2023/03/21 11:32:08;;;;;;;2.87;1.90;;;10.70;99.90;;;;;;4936125;29;20226;-79
2023/03/21 11:34:47;;;;;;;3.40;2.37;;;10.90;99.90;;;;;;4986726;28;20225;-76
2023/03/21 11:37:26;;;;;;;3.20;2.60;;;11.10;99.90;;;;;;4953664;29;20197;-75
2023/03/21 11:39:56;;;;;;;3.27;2.27;;;11.20;99.90;;;;;;4986112;28;20292;-74
2023/03/21 11:42:29;;;;;;;4.90;2.87;;;11.30;99.90;;;;;;4970390;28;20202;-73
2023/03/21 11:45:00;;;;;;;4.33;2.80;;;11.40;99.90;;;;;;4973600;28;20201;-76
2023/03/21 11:47:27;;;;;;;5.43;3.10;;;11.30;99.90;;;;;;4992445;28;20181;-76
2023/03/21 11:49:55;;;;;;;5.17;3.30;;;11.20;99.90;;;;;;4993194;28;20203;-75
2023/03/21 11:52:43;;;;;;;5.67;3.63;;;11.30;99.90;;;;;;4993913;28;20196;-74
2023/03/21 11:55:34;;;;;;;7.50;4.10;;;11.30;99.90;;;;;;4976250;28;20283;-78
2023/03/21 11:58:31;;;;;;;6.03;3.87;;;11.40;99.90;;;;;;4992376;28;20706;-76
2023/03/21 12:01:17;;;;;;;6.93;4.20;;;11.40;99.90;;;;;;4992406;28;20689;-76
2023/03/21 12:04:17;;;;;;;6.77;3.83;;;11.60;99.90;;;;;;4992355;28;20197;-77
2023/03/21 12:07:31;;;;;;;5.67;3.80;;;11.80;99.90;;;;;;4975974;28;20212;-77
2023/03/21 12:10:04;;;;;;;5.40;3.67;;;11.90;99.90;;;;;;4968215;28;20233;-75
2023/03/21 12:12:41;;;;;;;5.23;3.73;;;12.10;99.90;;;;;;4952754;28;20206;-76
2023/03/21 12:15:23;;;;;;;6.73;3.80;;;12.50;99.90;;;;;;4952164;29;20228;-74
2023/03/21 12:18:15;;;;;;;6.33;3.60;;;12.50;99.90;;;;;;4927702;29;20204;-76
2023/03/21 12:20:55;;;;;;;5.67;4.13;;;12.40;99.90;;;;;;4933306;29;20222;-76
2023/03/21 12:23:41;;;;;;;5.87;3.67;;;12.50;99.90;;;;;;4948908;29;20209;-75
2023/03/21 12:26:27;;;;;;;5.20;3.47;;;12.50;99.90;;;;;;4932881;28;20202;-82
2023/03/21 12:29:36;;;;;;;5.00;3.33;;;12.20;99.90;;;;;;4948684;29;20213;-80
2023/03/21 12:32:50;;;;;;;7.93;4.30;;;12.10;99.90;;;;;;4929657;29;20235;-79
2023/03/21 12:35:59;;;;;;;6.20;3.80;;;12.00;99.90;;;;;;4914289;29;20318;-79
2023/03/21 12:39:07;;;;;;;5.00;3.50;;;11.60;99.90;;;;;;4913257;29;20604;-78
2023/03/21 12:42:09;;;;;;;7.80;4.10;;;11.80;99.90;;;;;;4898621;29;20704;-78
2023/03/21 12:44:44;;;;;;;6.03;3.80;;;12.00;99.90;;;;;;4929986;29;20689;-81
2023/03/21 12:47:18;;;;;;;5.80;3.90;;;11.90;99.90;;;;;;4934531;29;20547;-79
2023/03/21 12:49:50;;;;;;;5.40;3.90;;;12.00;99.90;;;;;;4954596;29;20205;-80
2023/03/21 12:52:33;;;;;;;5.63;3.80;;;11.90;99.90;;;;;;4953652;29;20614;-79
2023/03/21 12:55:21;;;;;;;5.43;4.00;;;12.10;99.90;;;;;;4953111;29;20226;-79
2023/03/21 12:57:54;;;;;;;6.23;3.70;;;12.30;99.90;;;;;;4954755;29;20182;-81
2023/03/21 13:00:32;;;;;;;6.17;3.73;;;12.30;99.90;;;;;;4953869;28;20828;-80
2023/03/21 13:03:23;;;;;;;6.27;4.07;;;12.40;99.90;;;;;;4937404;29;20230;-80
2023/03/21 13:06:08;;;;;;;6.43;3.93;;;12.20;99.90;;;;;;4954543;29;20197;-80
2023/03/21 13:09:13;;;;;;;5.20;3.80;;;11.90;99.90;;;;;;4953499;28;20229;-80
2023/03/21 13:11:42;;;;;;;5.60;3.70;;;11.40;99.90;;;;;;4953927;29;20193;-79